Time;durP1;ratioP1;P1;durP2;ratioP2;P2;SDS_P1;SDS_P2;PMS_P1;PMS_P2;Temp;Humidity;BMP_temperature;BMP_pressure;BME280_temperature;BME280_humidity;BME280_pressure;Samples;Min_cycle;Max_cycle;Signal;HPM_P1;HPM_P2
2023/09/24 00:01:03;;;;;;;2.42;1.55;;;11.40;99.90;;;;;;4965709;28;20558;-83
2023/09/24 00:03:28;;;;;;;3.80;1.42;;;11.40;99.90;;;;;;4967286;28;20027;-82
2023/09/24 00:05:54;;;;;;;3.15;1.67;;;11.40;99.90;;;;;;4965993;28;20042;-82
2023/09/24 00:08:20;;;;;;;3.83;1.50;;;11.30;99.90;;;;;;4967644;28;20088;-82
2023/09/24 00:10:50;;;;;;;3.90;1.98;;;11.30;99.90;;;;;;4967242;28;20039;-82
2023/09/24 00:13:16;;;;;;;2.75;1.58;;;11.30;99.90;;;;;;4967015;28;20109;-82
2023/09/24 00:15:41;;;;;;;4.03;1.48;;;11.30;99.90;;;;;;4965637;28;20049;-82
2023/09/24 00:18:07;;;;;;;3.55;1.60;;;11.20;99.90;;;;;;4966758;28;20026;-82
2023/09/24 00:20:33;;;;;;;3.38;1.42;;;11.20;99.90;;;;;;4967089;28;20110;-82
2023/09/24 00:22:58;;;;;;;4.20;1.50;;;11.20;99.90;;;;;;4965718;28;20081;-82
2023/09/24 00:25:25;;;;;;;3.72;1.52;;;11.10;99.90;;;;;;4966622;28;20035;-82
2023/09/24 00:27:51;;;;;;;3.10;1.50;;;11.10;99.90;;;;;;4967551;28;20062;-82
2023/09/24 00:30:17;;;;;;;2.35;1.52;;;11.00;99.90;;;;;;4966738;28;20122;-82
2023/09/24 00:32:42;;;;;;;2.03;1.40;;;11.00;99.90;;;;;;4967246;28;20469;-82
2023/09/24 00:35:08;;;;;;;4.78;1.48;;;10.90;99.90;;;;;;4965758;28;20045;-82
2023/09/24 00:37:34;;;;;;;5.72;1.60;;;10.90;99.90;;;;;;4965541;28;20031;-82
2023/09/24 00:39:59;;;;;;;3.13;1.58;;;10.90;99.90;;;;;;4965704;28;20035;-83
2023/09/24 00:42:28;;;;;;;2.90;1.67;;;10.80;99.90;;;;;;4966412;28;20792;-82
2023/09/24 00:44:55;;;;;;;4.95;1.67;;;10.80;99.90;;;;;;4965533;28;20035;-82
2023/09/24 00:47:22;;;;;;;4.30;1.58;;;10.70;99.90;;;;;;4965509;28;20035;-82
2023/09/24 00:49:48;;;;;;;2.28;1.42;;;10.60;99.90;;;;;;4966112;28;20493;-82
2023/09/24 00:52:14;;;;;;;3.03;1.60;;;10.60;99.90;;;;;;4964749;28;20444;-82
2023/09/24 00:54:41;;;;;;;5.25;1.60;;;10.60;99.90;;;;;;4965703;28;20136;-82
2023/09/24 00:57:07;;;;;;;3.17;1.67;;;10.50;99.90;;;;;;4965329;28;20101;-82
2023/09/24 00:59:32;;;;;;;3.30;1.70;;;10.50;99.90;;;;;;4965782;28;20062;-82
2023/09/24 01:01:59;;;;;;;3.00;1.63;;;10.40;99.90;;;;;;4965149;28;20130;-82
2023/09/24 01:04:25;;;;;;;3.40;1.40;;;10.40;99.90;;;;;;4964567;28;20069;-82
2023/09/24 01:06:50;;;;;;;8.40;2.10;;;10.30;99.90;;;;;;4965974;28;20455;-82
2023/09/24 01:09:21;;;;;;;4.13;1.70;;;10.30;99.90;;;;;;4966487;28;20034;-82
2023/09/24 01:11:52;;;;;;;2.78;1.52;;;10.30;99.90;;;;;;4965764;28;21331;-82
2023/09/24 01:14:18;;;;;;;4.20;1.85;;;10.20;99.90;;;;;;4963843;28;20035;-82
2023/09/24 01:16:43;;;;;;;3.85;2.00;;;10.20;99.90;;;;;;4964870;28;20390;-82
2023/09/24 01:19:09;;;;;;;5.00;1.57;;;10.20;99.90;;;;;;4965404;28;20035;-82
2023/09/24 01:21:36;;;;;;;3.53;1.98;;;10.20;99.90;;;;;;4965569;28;20038;-82
2023/09/24 01:24:03;;;;;;;4.35;1.55;;;10.10;99.90;;;;;;4965481;28;20027;-82
2023/09/24 01:26:29;;;;;;;3.13;1.63;;;10.10;99.90;;;;;;4964980;28;20106;-82
2023/09/24 01:28:54;;;;;;;3.83;2.10;;;10.00;99.90;;;;;;4964748;28;20767;-82
2023/09/24 01:31:20;;;;;;;3.80;1.73;;;10.00;99.90;;;;;;4964304;28;20027;-82
2023/09/24 01:33:49;;;;;;;3.73;1.90;;;9.90;99.90;;;;;;4964211;28;20027;-82
2023/09/24 01:36:15;;;;;;;3.57;1.90;;;9.90;99.90;;;;;;4965083;28;20022;-82
2023/09/24 01:38:41;;;;;;;3.90;1.93;;;9.90;99.90;;;;;;4966075;28;20027;-82
2023/09/24 01:41:10;;;;;;;3.57;2.27;;;9.80;99.90;;;;;;4963805;28;20061;-82
2023/09/24 01:43:37;;;;;;;6.00;1.70;;;9.80;99.90;;;;;;4965572;28;20041;-82
2023/09/24 01:46:05;;;;;;;8.80;1.90;;;9.70;99.90;;;;;;4964573;28;20065;-82
2023/09/24 01:48:33;;;;;;;4.50;1.83;;;9.70;99.90;;;;;;4965446;28;20497;-82
2023/09/24 01:51:04;;;;;;;2.77;1.80;;;9.70;99.90;;;;;;4964642;28;20089;-82
2023/09/24 01:53:32;;;;;;;3.27;1.60;;;9.60;99.90;;;;;;4964456;28;20319;-82
2023/09/24 01:56:00;;;;;;;4.53;1.93;;;9.60;99.90;;;;;;4964295;28;20110;-82
2023/09/24 01:58:26;;;;;;;3.67;1.97;;;9.60;99.90;;;;;;4965302;28;21018;-82
2023/09/24 02:00:52;;;;;;;3.23;1.60;;;9.60;99.90;;;;;;4964967;28;20027;-82
2023/09/24 02:03:18;;;;;;;4.93;2.50;;;9.50;99.90;;;;;;4965132;28;20065;-82
2023/09/24 02:05:44;;;;;;;2.97;1.70;;;9.50;99.90;;;;;;4956970;28;20027;-82
2023/09/24 02:08:10;;;;;;;2.37;1.67;;;9.50;99.90;;;;;;4964815;28;20018;-82
2023/09/24 02:10:40;;;;;;;3.00;1.90;;;9.50;99.90;;;;;;4964665;28;20414;-82
2023/09/24 02:13:10;;;;;;;3.80;2.07;;;9.40;99.90;;;;;;4964450;28;20035;-82
2023/09/24 02:15:38;;;;;;;7.10;1.83;;;9.40;99.90;;;;;;4963907;28;20035;-82
2023/09/24 02:18:04;;;;;;;3.10;1.80;;;9.40;99.90;;;;;;4964655;28;20045;-82
2023/09/24 02:22:59;;;;;;;3.23;1.80;;;9.40;99.90;;;;;;4964119;28;20027;-82
2023/09/24 02:25:25;;;;;;;3.77;2.30;;;9.40;99.90;;;;;;4963206;28;20030;-82
2023/09/24 02:27:51;;;;;;;3.87;1.90;;;9.30;99.90;;;;;;4963310;28;20081;-82
2023/09/24 02:30:18;;;;;;;3.80;1.80;;;9.30;99.90;;;;;;4963731;28;20035;-82
2023/09/24 02:32:44;;;;;;;2.60;1.60;;;9.30;99.90;;;;;;4964363;28;20509;-82
2023/09/24 02:35:11;;;;;;;3.90;1.90;;;9.30;99.90;;;;;;4962514;28;20042;-82
2023/09/24 02:37:40;;;;;;;3.77;1.73;;;9.30;99.90;;;;;;4963632;28;20019;-82
2023/09/24 02:40:10;;;;;;;5.47;2.20;;;9.30;99.90;;;;;;4963168;28;20034;-82
2023/09/24 02:42:35;;;;;;;5.77;2.43;;;9.30;99.90;;;;;;4963465;28;20041;-82
2023/09/24 02:45:01;;;;;;;5.27;2.30;;;9.30;99.90;;;;;;4962401;28;20036;-82
2023/09/24 02:47:27;;;;;;;4.00;2.00;;;9.30;99.90;;;;;;4964247;28;20022;-82
2023/09/24 02:49:53;;;;;;;3.20;2.13;;;9.30;99.90;;;;;;4962652;28;20937;-82
2023/09/24 02:52:19;;;;;;;3.23;1.90;;;9.30;99.90;;;;;;4964456;28;20890;-82
2023/09/24 02:54:45;;;;;;;4.20;2.00;;;9.30;99.90;;;;;;4962418;28;20031;-82
2023/09/24 02:57:11;;;;;;;2.83;2.00;;;9.30;99.90;;;;;;4964514;28;20030;-82
2023/09/24 02:59:36;;;;;;;4.33;2.43;;;9.40;99.90;;;;;;4964149;28;20478;-82
2023/09/24 03:02:02;;;;;;;3.73;2.13;;;9.40;99.90;;;;;;4962489;28;20082;-82
2023/09/24 03:04:28;;;;;;;3.97;2.10;;;9.40;99.90;;;;;;4962470;28;20050;-82
2023/09/24 03:06:53;;;;;;;4.37;2.10;;;9.40;99.90;;;;;;4962086;28;20394;-82
2023/09/24 03:09:19;;;;;;;4.47;1.97;;;9.40;99.90;;;;;;4961285;28;20046;-82
2023/09/24 03:11:44;;;;;;;4.77;1.80;;;9.40;99.90;;;;;;4961954;28;20034;-82
2023/09/24 03:14:10;;;;;;;5.40;2.10;;;9.40;99.90;;;;;;4963118;28;21311;-82
2023/09/24 03:16:35;;;;;;;4.17;1.87;;;9.40;99.90;;;;;;4962149;28;20188;-82
2023/09/24 03:19:01;;;;;;;4.63;1.80;;;9.40;99.90;;;;;;4961992;28;20035;-82
2023/09/24 03:21:27;;;;;;;4.07;2.10;;;9.40;99.90;;;;;;4962859;28;20093;-82
2023/09/24 03:23:53;;;;;;;6.27;2.43;;;9.40;99.90;;;;;;4962245;28;20037;-82
2023/09/24 03:26:19;;;;;;;4.70;2.13;;;9.50;99.90;;;;;;4961778;28;20026;-82
2023/09/24 03:28:47;;;;;;;6.73;2.10;;;9.50;99.90;;;;;;4962262;28;20053;-82
2023/09/24 03:31:16;;;;;;;5.23;1.90;;;9.40;99.90;;;;;;4962402;28;20034;-82
2023/09/24 03:33:42;;;;;;;8.03;2.17;;;9.40;99.90;;;;;;4961461;28;20098;-82
2023/09/24 03:36:08;;;;;;;3.83;1.97;;;9.40;99.90;;;;;;4961338;28;20031;-81
2023/09/24 03:38:35;;;;;;;2.87;1.70;;;9.40;99.90;;;;;;4961950;28;20026;-82
2023/09/24 03:41:01;;;;;;;4.40;1.80;;;9.40;99.90;;;;;;4960587;28;20083;-82
2023/09/24 03:43:27;;;;;;;3.63;2.10;;;9.40;99.90;;;;;;4961424;28;20042;-82
2023/09/24 03:45:52;;;;;;;4.10;1.80;;;9.30;99.90;;;;;;4959917;28;20023;-82
2023/09/24 03:48:19;;;;;;;4.13;2.00;;;9.30;99.90;;;;;;4961653;28;20031;-82
2023/09/24 03:50:45;;;;;;;2.60;1.60;;;9.30;99.90;;;;;;4961108;28;20161;-82
2023/09/24 03:53:10;;;;;;;3.30;1.80;;;9.20;99.90;;;;;;4961956;28;20074;-82
2023/09/24 03:55:37;;;;;;;5.63;1.90;;;9.20;99.90;;;;;;4960096;28;20117;-82
2023/09/24 03:58:05;;;;;;;5.10;2.00;;;9.20;99.90;;;;;;4968100;28;20111;-82
2023/09/24 04:00:31;;;;;;;5.87;2.07;;;9.10;99.90;;;;;;4969186;28;20709;-82
2023/09/24 04:02:57;;;;;;;3.47;2.00;;;9.10;99.90;;;;;;4970077;28;20033;-82
2023/09/24 04:05:23;;;;;;;3.70;1.80;;;9.10;99.90;;;;;;4967109;28;20027;-82
2023/09/24 04:07:51;;;;;;;3.07;1.93;;;9.00;99.90;;;;;;4968310;28;20161;-82
2023/09/24 04:10:19;;;;;;;5.37;2.73;;;9.00;99.90;;;;;;4967944;28;20086;-82
2023/09/24 04:12:52;;;;;;;2.43;1.60;;;8.90;99.90;;;;;;4967983;28;20034;-82
2023/09/24 04:15:19;;;;;;;2.83;1.90;;;8.90;99.90;;;;;;4966858;28;20034;-82
2023/09/24 04:17:49;;;;;;;4.43;2.00;;;8.90;99.90;;;;;;4968477;28;20496;-82
2023/09/24 04:20:15;;;;;;;4.90;1.90;;;8.80;99.90;;;;;;4967334;28;20928;-82
2023/09/24 04:22:42;;;;;;;4.23;1.70;;;8.80;99.90;;;;;;4967171;28;20098;-81
2023/09/24 04:25:08;;;;;;;5.93;1.90;;;8.80;99.90;;;;;;4965909;28;20723;-82
2023/09/24 04:27:35;;;;;;;11.03;3.10;;;8.70;99.90;;;;;;4967083;28;20035;-82
2023/09/24 04:30:03;;;;;;;4.23;2.00;;;8.70;99.90;;;;;;4966152;28;20043;-82
2023/09/24 04:32:29;;;;;;;3.37;1.77;;;8.70;99.90;;;;;;4967768;28;20026;-81
2023/09/24 04:34:55;;;;;;;3.47;1.70;;;8.70;99.90;;;;;;4965947;28;20080;-82
2023/09/24 04:37:21;;;;;;;7.27;1.90;;;8.60;99.90;;;;;;4966443;28;20035;-82
2023/09/24 04:39:47;;;;;;;5.07;2.03;;;8.60;99.90;;;;;;4966051;28;20031;-81
2023/09/24 04:42:14;;;;;;;4.10;2.37;;;8.50;99.90;;;;;;4967227;28;20015;-82
2023/09/24 04:44:39;;;;;;;3.00;1.97;;;8.50;99.90;;;;;;4965756;28;20065;-82
2023/09/24 04:47:05;;;;;;;4.67;2.03;;;8.50;99.90;;;;;;4966658;28;20022;-81
2023/09/24 04:49:31;;;;;;;4.97;1.90;;;8.50;99.90;;;;;;4967187;28;20035;-82
2023/09/24 04:51:56;;;;;;;2.90;1.90;;;8.50;99.90;;;;;;4966750;28;20030;-82
2023/09/24 04:54:22;;;;;;;3.93;2.23;;;8.50;99.90;;;;;;4960661;28;20058;-82
2023/09/24 04:56:49;;;;;;;4.70;2.00;;;8.50;99.90;;;;;;4964156;28;20047;-82
2023/09/24 04:59:15;;;;;;;10.30;2.43;;;8.40;99.90;;;;;;4964839;28;20019;-82
2023/09/24 05:01:40;;;;;;;4.50;1.80;;;8.40;99.90;;;;;;4965124;28;20086;-83
2023/09/24 05:04:06;;;;;;;6.47;2.43;;;8.40;99.90;;;;;;4964380;28;20401;-82
2023/09/24 05:06:32;;;;;;;4.30;2.00;;;8.40;99.90;;;;;;4964464;28;20050;-82
2023/09/24 05:08:58;;;;;;;3.40;2.10;;;8.40;99.90;;;;;;4959886;28;20042;-83
2023/09/24 05:11:23;;;;;;;5.50;2.17;;;8.40;99.90;;;;;;4964269;28;20035;-82
2023/09/24 05:13:49;;;;;;;4.90;2.43;;;8.40;99.90;;;;;;4964002;28;20030;-82
2023/09/24 05:16:15;;;;;;;6.33;2.23;;;8.40;99.90;;;;;;4964174;28;20027;-82
2023/09/24 05:18:41;;;;;;;3.70;2.17;;;8.30;99.90;;;;;;4964470;28;20046;-82
2023/09/24 05:21:19;;;;;;;5.83;2.27;;;8.30;99.90;;;;;;4964091;28;20030;-82
2023/09/24 05:23:46;;;;;;;5.00;2.00;;;8.30;99.90;;;;;;4964431;28;20023;-82
2023/09/24 05:26:13;;;;;;;10.80;2.80;;;8.30;99.90;;;;;;4963193;28;20038;-82
2023/09/24 05:28:39;;;;;;;4.30;2.27;;;8.40;99.90;;;;;;4963678;28;20049;-83
2023/09/24 05:31:05;;;;;;;4.23;2.20;;;8.40;99.90;;;;;;4962724;28;20046;-82
2023/09/24 05:33:30;;;;;;;5.83;2.40;;;8.40;99.90;;;;;;4965178;28;20402;-82
2023/09/24 05:35:56;;;;;;;2.73;2.00;;;8.40;99.90;;;;;;4963515;28;20023;-82
2023/09/24 05:38:22;;;;;;;3.50;2.43;;;8.40;99.90;;;;;;4963620;28;20041;-82
2023/09/24 05:40:47;;;;;;;4.00;2.23;;;8.50;99.90;;;;;;4963223;28;20038;-82
2023/09/24 05:43:13;;;;;;;4.47;2.20;;;8.50;99.90;;;;;;4965437;28;20058;-82
2023/09/24 05:45:46;;;;;;;4.33;1.90;;;8.50;99.90;;;;;;4963762;28;20026;-82
2023/09/24 05:48:13;;;;;;;3.63;2.20;;;8.50;99.90;;;;;;4964690;28;20406;-82
2023/09/24 05:50:38;;;;;;;5.63;2.40;;;8.50;99.90;;;;;;4963768;28;20037;-82
2023/09/24 05:53:04;;;;;;;3.53;2.20;;;8.60;99.90;;;;;;4964113;28;20039;-82
2023/09/24 05:55:30;;;;;;;5.20;2.00;;;8.60;99.90;;;;;;4962823;28;20117;-82
2023/09/24 05:57:56;;;;;;;5.80;2.20;;;8.60;99.90;;;;;;4963965;28;20038;-82
2023/09/24 06:00:22;;;;;;;5.93;2.27;;;8.60;99.90;;;;;;4963685;28;20030;-82
2023/09/24 06:02:47;;;;;;;4.90;2.47;;;8.70;99.90;;;;;;4964104;28;20034;-82
2023/09/24 06:05:13;;;;;;;11.13;3.03;;;8.70;99.90;;;;;;4963730;28;20039;-82
2023/09/24 06:07:39;;;;;;;3.43;2.13;;;8.70;99.90;;;;;;4964223;28;20039;-82
2023/09/24 06:10:04;;;;;;;5.00;2.17;;;8.80;99.90;;;;;;4963436;28;20023;-82
2023/09/24 06:12:31;;;;;;;3.03;2.10;;;8.90;99.90;;;;;;4962564;28;20031;-82
2023/09/24 06:14:57;;;;;;;4.87;2.53;;;9.00;99.90;;;;;;4963004;28;20106;-82
2023/09/24 06:17:23;;;;;;;3.47;2.30;;;9.00;99.90;;;;;;4962530;28;20039;-82
2023/09/24 06:19:48;;;;;;;4.93;2.23;;;9.10;99.90;;;;;;4960749;28;20033;-82
2023/09/24 06:22:14;;;;;;;3.53;2.10;;;9.10;99.90;;;;;;4962309;28;20047;-82
2023/09/24 06:24:39;;;;;;;6.20;2.40;;;9.20;99.90;;;;;;4962422;28;20031;-82
2023/09/24 06:27:05;;;;;;;4.90;2.27;;;9.20;99.90;;;;;;4964219;28;20033;-82
2023/09/24 06:29:34;;;;;;;4.20;1.87;;;9.30;99.90;;;;;;4962786;28;20062;-80
2023/09/24 06:31:59;;;;;;;3.53;2.17;;;9.40;99.90;;;;;;4963893;28;20023;-82
2023/09/24 06:34:26;;;;;;;3.00;1.90;;;9.40;99.90;;;;;;4960959;28;20037;-82
2023/09/24 06:36:51;;;;;;;6.23;2.30;;;9.50;99.90;;;;;;4962604;28;20524;-81
2023/09/24 06:39:17;;;;;;;3.83;2.13;;;9.60;99.90;;;;;;4961398;28;20134;-81
2023/09/24 06:41:42;;;;;;;6.10;2.20;;;9.60;99.90;;;;;;4962239;28;20037;-82
2023/09/24 06:44:10;;;;;;;4.13;2.10;;;9.70;99.90;;;;;;4962348;28;20126;-82
2023/09/24 06:46:36;;;;;;;3.73;2.17;;;9.80;99.90;;;;;;4962633;28;20045;-82
2023/09/24 06:49:02;;;;;;;5.40;2.53;;;9.80;99.90;;;;;;4963095;28;21355;-82
2023/09/24 06:51:28;;;;;;;4.32;2.40;;;9.90;99.90;;;;;;4964637;28;20039;-82
2023/09/24 06:53:54;;;;;;;3.20;2.20;;;10.00;99.90;;;;;;4963429;28;20124;-82
2023/09/24 06:56:19;;;;;;;3.83;2.40;;;10.10;99.90;;;;;;4963276;28;20045;-82
2023/09/24 06:58:45;;;;;;;5.40;2.50;;;10.30;99.90;;;;;;4965973;28;20027;-82
2023/09/24 07:01:11;;;;;;;5.67;2.40;;;10.40;99.90;;;;;;4962770;28;20019;-82
2023/09/24 07:03:37;;;;;;;4.25;2.47;;;10.50;99.90;;;;;;4964855;28;20114;-82
2023/09/24 07:06:06;;;;;;;6.63;2.67;;;10.60;99.90;;;;;;4959580;28;20037;-83
2023/09/24 07:08:35;;;;;;;8.05;2.60;;;10.70;99.90;;;;;;4959315;28;20037;-82
2023/09/24 07:11:19;;;;;;;4.00;2.40;;;10.80;99.90;;;;;;4962384;28;20386;-82
2023/09/24 07:13:45;;;;;;;5.43;2.53;;;10.90;99.90;;;;;;4965100;28;20058;-83
2023/09/24 07:16:11;;;;;;;4.70;2.58;;;11.00;99.90;;;;;;4964021;28;20050;-82
2023/09/24 07:18:37;;;;;;;5.50;2.42;;;11.10;99.90;;;;;;4965709;28;20062;-82
2023/09/24 07:21:02;;;;;;;4.80;2.60;;;11.20;99.90;;;;;;4965602;28;20050;-82
2023/09/24 07:23:28;;;;;;;7.53;2.67;;;11.30;99.90;;;;;;4962739;28;20027;-82
2023/09/24 07:25:53;;;;;;;5.20;2.45;;;11.40;99.90;;;;;;4963327;28;20031;-82
2023/09/24 07:28:20;;;;;;;5.60;2.47;;;11.50;99.90;;;;;;4963787;28;20026;-82
2023/09/24 07:30:45;;;;;;;4.90;2.38;;;11.70;99.90;;;;;;4965428;28;20723;-82
2023/09/24 07:33:11;;;;;;;5.78;2.60;;;11.80;99.90;;;;;;4968222;28;20034;-82
2023/09/24 07:35:37;;;;;;;9.65;2.50;;;11.90;99.90;;;;;;4966752;28;20022;-83
2023/09/24 07:38:03;;;;;;;4.63;2.20;;;12.00;99.90;;;;;;4967663;28;20110;-82
2023/09/24 07:40:29;;;;;;;3.83;2.40;;;12.10;99.90;;;;;;4966960;28;20034;-82
2023/09/24 07:42:55;;;;;;;5.28;2.00;;;12.20;99.90;;;;;;4967935;28;20035;-83
2023/09/24 07:45:20;;;;;;;5.53;2.30;;;12.30;99.90;;;;;;4964313;28;20474;-83
2023/09/24 07:47:46;;;;;;;5.53;2.28;;;12.40;99.90;;;;;;4965169;28;20665;-82
2023/09/24 07:50:11;;;;;;;7.28;2.28;;;12.40;99.90;;;;;;4965703;28;20467;-83
2023/09/24 07:52:37;;;;;;;9.30;2.50;;;12.50;99.90;;;;;;4964470;28;20529;-83
2023/09/24 07:55:04;;;;;;;4.95;2.08;;;12.70;99.90;;;;;;4965647;28;21423;-83
2023/09/24 07:57:29;;;;;;;5.45;2.03;;;12.80;99.90;;;;;;4968726;28;20026;-83
2023/09/24 07:59:55;;;;;;;6.32;2.15;;;12.90;99.90;;;;;;4969418;28;20675;-83
2023/09/24 08:02:21;;;;;;;5.72;2.78;;;12.90;99.90;;;;;;4969934;28;20054;-83
2023/09/24 08:04:47;;;;;;;5.35;2.10;;;13.00;99.90;;;;;;4969476;28;20023;-83
2023/09/24 08:07:13;;;;;;;5.55;2.08;;;13.00;99.90;;;;;;4970666;28;20038;-83
2023/09/24 08:09:40;;;;;;;6.55;2.33;;;13.20;99.90;;;;;;4969749;28;20165;-82
2023/09/24 08:12:06;;;;;;;3.95;2.03;;;13.30;99.90;;;;;;4969054;28;20046;-83
2023/09/24 08:14:33;;;;;;;5.93;2.10;;;13.40;99.90;;;;;;4969358;28;20031;-82
2023/09/24 08:16:58;;;;;;;9.10;2.50;;;13.40;99.90;;;;;;4968371;28;20113;-83
2023/09/24 08:19:30;;;;;;;6.47;2.28;;;13.40;99.90;;;;;;4966647;28;20173;-83
2023/09/24 08:21:59;;;;;;;6.97;2.30;;;13.50;99.90;;;;;;4967401;28;20034;-83
2023/09/24 08:24:25;;;;;;;7.65;2.33;;;13.50;99.90;;;;;;4965556;28;20031;-83
2023/09/24 08:26:50;;;;;;;5.35;2.30;;;13.70;99.90;;;;;;4966781;28;20031;-82
2023/09/24 08:29:16;;;;;;;4.30;1.88;;;13.80;99.90;;;;;;4967471;28;20039;-83
2023/09/24 08:31:41;;;;;;;5.20;2.15;;;14.10;99.90;;;;;;4966351;28;20128;-83
2023/09/24 08:34:07;;;;;;;6.15;2.10;;;14.40;99.90;;;;;;4966927;28;20042;-83
2023/09/24 08:36:33;;;;;;;5.72;2.13;;;14.60;99.90;;;;;;4967709;28;20027;-83
2023/09/24 08:38:58;;;;;;;4.38;1.98;;;14.70;99.90;;;;;;4967576;28;20058;-83
2023/09/24 08:41:24;;;;;;;3.75;1.58;;;14.70;99.90;;;;;;4968704;28;20121;-83
2023/09/24 08:43:55;;;;;;;5.13;1.80;;;14.80;99.90;;;;;;4966287;28;20042;-84
2023/09/24 08:46:22;;;;;;;3.85;1.80;;;14.90;99.90;;;;;;4965510;28;20035;-85
2023/09/24 08:48:48;;;;;;;5.22;2.53;;;14.90;99.90;;;;;;4966300;28;20026;-85
2023/09/24 08:51:15;;;;;;;6.20;1.67;;;14.90;99.90;;;;;;4965797;28;21373;-85
2023/09/24 08:53:40;;;;;;;5.28;2.00;;;14.90;99.90;;;;;;4967210;28;20041;-84
2023/09/24 08:56:06;;;;;;;5.70;2.30;;;15.00;99.90;;;;;;4967026;28;20026;-85
2023/09/24 08:58:32;;;;;;;5.57;1.92;;;15.10;99.90;;;;;;4968728;28;20371;-86
2023/09/24 09:00:59;;;;;;;4.75;1.95;;;15.10;99.90;;;;;;4966395;28;20041;-85
2023/09/24 09:03:24;;;;;;;5.47;2.00;;;15.10;99.90;;;;;;4967978;28;20030;-85
2023/09/24 09:05:51;;;;;;;3.83;1.80;;;15.10;99.90;;;;;;4967310;28;20493;-85
2023/09/24 09:08:17;;;;;;;3.58;1.58;;;15.10;99.90;;;;;;4966727;28;20118;-85
2023/09/24 09:10:42;;;;;;;5.25;1.50;;;15.20;99.90;;;;;;4965383;28;20421;-85
2023/09/24 09:13:12;;;;;;;5.65;1.80;;;15.40;99.90;;;;;;4964265;28;20031;-85
2023/09/24 09:15:39;;;;;;;4.03;1.55;;;15.50;99.90;;;;;;4963625;28;20362;-85
2023/09/24 09:18:05;;;;;;;4.85;1.48;;;15.60;99.90;;;;;;4963521;28;20391;-85
2023/09/24 09:20:47;;;;;;;2.97;1.45;;;15.70;99.90;;;;;;4962618;28;20039;-85
2023/09/24 09:23:15;;;;;;;5.32;1.75;;;15.80;99.90;;;;;;4964183;28;20093;-84
2023/09/24 09:25:53;;;;;;;3.20;1.55;;;15.90;99.90;;;;;;4962446;28;20037;-85
2023/09/24 09:28:24;;;;;;;4.40;1.70;;;16.00;99.90;;;;;;4963247;28;20081;-86
2023/09/24 09:31:13;;;;;;;4.85;1.90;;;16.20;99.90;;;;;;4962808;28;20836;-87
2023/09/24 09:33:41;;;;;;;5.15;1.80;;;16.30;99.90;;;;;;4953352;28;20039;-85
2023/09/24 09:36:27;;;;;;;4.53;1.80;;;16.50;99.90;;;;;;4962386;28;20065;-85
2023/09/24 09:38:54;;;;;;;3.47;1.75;;;16.70;99.90;;;;;;4963980;28;20027;-84
2023/09/24 09:41:23;;;;;;;3.25;1.50;;;16.80;99.90;;;;;;4962007;28;21575;-86
2023/09/24 09:43:52;;;;;;;3.85;1.40;;;16.90;99.90;;;;;;4963164;28;20057;-86
2023/09/24 09:46:20;;;;;;;5.07;1.88;;;16.80;99.90;;;;;;4962557;28;20107;-85
2023/09/24 09:49:09;;;;;;;4.35;1.85;;;16.70;99.90;;;;;;4962464;28;20027;-85
2023/09/24 09:51:48;;;;;;;4.88;1.40;;;16.70;99.90;;;;;;4961885;28;20583;-86
2023/09/24 09:54:15;;;;;;;4.00;1.70;;;16.90;99.90;;;;;;4960467;28;20045;-85
2023/09/24 09:56:41;;;;;;;5.35;2.13;;;17.00;99.90;;;;;;4960615;28;20034;-85
2023/09/24 09:59:08;;;;;;;4.32;1.70;;;17.20;99.90;;;;;;4958744;28;20042;-86
2023/09/24 10:01:35;;;;;;;5.45;1.75;;;17.30;99.90;;;;;;4957641;28;20864;-86
2023/09/24 10:04:03;;;;;;;3.53;1.60;;;17.50;99.90;;;;;;4960391;28;20118;-85
2023/09/24 10:06:34;;;;;;;5.38;1.88;;;17.70;99.90;;;;;;4961116;28;20034;-83
2023/09/24 10:09:01;;;;;;;4.57;1.40;;;17.90;99.90;;;;;;4960754;28;20608;-84
2023/09/24 10:11:32;;;;;;;6.32;1.45;;;18.10;99.90;;;;;;4959790;28;20026;-84
2023/09/24 10:14:05;;;;;;;3.50;1.80;;;18.50;99.90;;;;;;4961198;28;20031;-84
2023/09/24 10:16:32;;;;;;;4.47;1.88;;;18.40;99.90;;;;;;4959901;28;20398;-83
2023/09/24 10:18:59;;;;;;;4.82;1.73;;;18.30;99.90;;;;;;4961332;28;20117;-84
2023/09/24 10:21:44;;;;;;;6.03;1.50;;;18.10;99.90;;;;;;4960425;28;20038;-83
2023/09/24 10:24:13;;;;;;;;;;;17.90;99.90;;;;;;4960967;28;20520;-84
2023/09/24 10:27:03;;;;;;;3.83;1.55;;;17.70;99.90;;;;;;4961142;28;20008;-84
2023/09/24 10:29:44;;;;;;;3.35;1.33;;;17.70;99.90;;;;;;4959743;28;20042;-84
2023/09/24 10:32:15;;;;;;;4.55;1.85;;;17.90;99.90;;;;;;4960210;28;20062;-84
2023/09/24 10:34:55;;;;;;;3.40;1.77;;;17.90;99.90;;;;;;4960117;28;20677;-84
2023/09/24 10:37:25;;;;;;;4.32;1.60;;;18.00;99.90;;;;;;4960635;28;20031;-84
2023/09/24 10:40:09;;;;;;;2.50;1.30;;;18.30;99.90;;;;;;4960448;28;20046;-84
2023/09/24 10:42:39;;;;;;;2.67;1.33;;;18.50;99.90;;;;;;4960065;28;20157;-84
2023/09/24 10:45:07;;;;;;;3.28;1.25;;;18.90;99.90;;;;;;4959830;28;20489;-84
2023/09/24 10:47:40;;;;;;;5.10;1.55;;;19.20;99.90;;;;;;4960597;28;21359;-83
2023/09/24 10:50:11;;;;;;;3.00;1.60;;;19.20;99.90;;;;;;4960337;28;20078;-85
2023/09/24 10:52:58;;;;;;;4.45;1.40;;;19.30;99.90;;;;;;4961893;28;20418;-84
2023/09/24 10:55:29;;;;;;;2.83;1.30;;;19.00;99.90;;;;;;4957565;28;20023;-85
2023/09/24 10:57:58;;;;;;;3.38;1.30;;;18.70;99.90;;;;;;4960519;28;20838;-84
2023/09/24 11:00:25;;;;;;;3.97;1.45;;;18.20;99.90;;;;;;4961064;28;20026;-85
2023/09/24 11:02:55;;;;;;;3.90;1.40;;;17.80;99.90;;;;;;4959728;28;20691;-85
2023/09/24 11:05:20;;;;;;;2.95;1.20;;;17.30;99.90;;;;;;4959047;28;20062;-84
2023/09/24 11:07:46;;;;;;;3.58;1.35;;;17.10;99.90;;;;;;4942351;28;20117;-85
2023/09/24 11:10:18;;;;;;;2.60;1.20;;;17.20;99.90;;;;;;4968105;28;20077;-84
2023/09/24 11:12:52;;;;;;;3.40;1.30;;;17.40;99.90;;;;;;4963588;28;20359;-84
2023/09/24 11:15:19;;;;;;;5.57;1.50;;;17.90;99.90;;;;;;4962559;28;20026;-83
2023/09/24 11:17:46;;;;;;;4.82;1.42;;;18.30;99.90;;;;;;4960563;28;20148;-84
2023/09/24 11:20:12;;;;;;;3.53;1.60;;;18.90;99.90;;;;;;4960416;28;20050;-84
2023/09/24 11:22:39;;;;;;;3.05;1.30;;;19.20;99.90;;;;;;4959190;28;20065;-84
2023/09/24 11:25:11;;;;;;;2.97;1.42;;;19.20;99.90;;;;;;4959507;28;20141;-84
2023/09/24 11:27:51;;;;;;;2.63;1.38;;;19.20;99.90;;;;;;4960166;28;20132;-84
2023/09/24 11:30:18;;;;;;;3.95;1.45;;;19.40;99.90;;;;;;4959647;28;20039;-84
2023/09/24 11:32:51;;;;;;;3.83;1.40;;;19.60;99.90;;;;;;4960259;28;20233;-84
2023/09/24 11:35:19;;;;;;;6.07;1.52;;;19.70;99.90;;;;;;4958909;28;20031;-84
2023/09/24 11:38:01;;;;;;;3.65;1.30;;;19.70;99.90;;;;;;4960350;28;20027;-83
2023/09/24 11:40:33;;;;;;;3.65;1.40;;;19.70;99.90;;;;;;4958453;28;20035;-84
2023/09/24 11:43:04;;;;;;;5.63;1.40;;;19.90;99.90;;;;;;4959724;28;20514;-84
2023/09/24 11:45:44;;;;;;;4.05;1.50;;;20.00;99.90;;;;;;4959180;28;20027;-85
2023/09/24 11:48:12;;;;;;;5.93;1.70;;;20.10;99.90;;;;;;4961007;28;20109;-84
2023/09/24 11:50:39;;;;;;;3.10;1.45;;;20.00;99.90;;;;;;4958850;28;20512;-84
2023/09/24 11:53:06;;;;;;;2.88;1.60;;;20.20;99.90;;;;;;4960364;28;20054;-84
2023/09/24 11:55:31;;;;;;;2.65;1.20;;;20.30;99.90;;;;;;4958895;28;20031;-84
2023/09/24 11:57:57;;;;;;;3.30;1.35;;;20.20;99.90;;;;;;4960570;28;20122;-84
2023/09/24 12:00:24;;;;;;;3.00;1.38;;;20.20;99.90;;;;;;4960365;28;21406;-85
2023/09/24 12:02:50;;;;;;;2.85;1.40;;;20.20;99.90;;;;;;4959803;28;20306;-84
2023/09/24 12:05:16;;;;;;;2.97;1.45;;;20.20;99.90;;;;;;4959275;28;20486;-84
2023/09/24 12:07:42;;;;;;;2.83;1.17;;;20.30;99.90;;;;;;4958964;28;20529;-85
2023/09/24 12:10:08;;;;;;;2.25;1.17;;;20.30;99.90;;;;;;4960249;28;20042;-84
2023/09/24 12:12:34;;;;;;;3.85;1.23;;;20.60;99.90;;;;;;4960041;28;20041;-84
2023/09/24 12:15:00;;;;;;;2.85;1.40;;;20.60;99.90;;;;;;4959375;28;20034;-84
2023/09/24 12:17:25;;;;;;;2.40;1.38;;;20.70;99.90;;;;;;4959355;28;20023;-84
2023/09/24 12:19:52;;;;;;;3.97;1.42;;;20.70;99.90;;;;;;4963022;28;20051;-84
2023/09/24 12:22:18;;;;;;;2.83;1.40;;;20.70;99.90;;;;;;4963486;28;20022;-85
2023/09/24 12:24:44;;;;;;;2.85;1.40;;;20.70;99.90;;;;;;4961983;28;20779;-84
2023/09/24 12:27:10;;;;;;;5.90;1.40;;;20.60;99.90;;;;;;4961861;28;20070;-84
2023/09/24 12:29:35;;;;;;;6.18;1.52;;;20.80;99.90;;;;;;4962604;28;20038;-85
2023/09/24 12:32:00;;;;;;;2.72;1.30;;;21.00;99.90;;;;;;4963531;28;20041;-85
2023/09/24 12:34:26;;;;;;;3.42;1.33;;;20.90;99.90;;;;;;4961155;28;20041;-85
2023/09/24 12:36:52;;;;;;;2.92;1.20;;;21.10;99.90;;;;;;4962508;28;20027;-85
2023/09/24 12:39:20;;;;;;;6.72;1.58;;;21.10;99.90;;;;;;4962359;28;20027;-84
2023/09/24 12:41:46;;;;;;;4.20;1.63;;;21.20;99.90;;;;;;4961593;28;20093;-85
2023/09/24 12:44:12;;;;;;;4.88;1.77;;;21.10;99.90;;;;;;4962130;28;20034;-84
2023/09/24 12:46:38;;;;;;;2.35;1.38;;;21.10;99.90;;;;;;4962821;28;20027;-85
2023/09/24 12:49:03;;;;;;;2.40;1.30;;;21.20;99.90;;;;;;4961147;28;20046;-85
2023/09/24 12:51:29;;;;;;;4.82;1.60;;;20.90;99.90;;;;;;4965100;28;20019;-85
2023/09/24 12:53:55;;;;;;;2.63;1.48;;;20.40;99.90;;;;;;4966790;28;20027;-85